createdAt,value
2023-03-19T00:00:43.809Z,59.20
2023-03-19T00:03:10.924Z,59.70
2023-03-19T00:05:37.972Z,59.80
2023-03-19T00:08:05.590Z,60.00
2023-03-19T00:10:32.612Z,60.90
2023-03-19T00:12:59.590Z,59.80
2023-03-19T00:15:26.542Z,59.70
2023-03-19T00:17:54.214Z,59.50
2023-03-19T00:20:22.174Z,59.50
2023-03-19T00:22:49.201Z,59.40
2023-03-19T00:25:16.213Z,59.20
2023-03-19T00:27:44.394Z,58.90
2023-03-19T00:30:12.268Z,58.80
2023-03-19T00:32:40.427Z,58.80
2023-03-19T00:35:08.697Z,58.70
2023-03-19T00:37:37.321Z,58.90
2023-03-19T00:40:05.798Z,58.90
2023-03-19T00:42:34.286Z,59.10
2023-03-19T00:45:01.245Z,59.20
2023-03-19T00:47:28.211Z,59.40
2023-03-19T00:49:56.162Z,59.30
2023-03-19T00:52:23.059Z,59.30
2023-03-19T00:54:50.957Z,59.30
2023-03-19T00:57:19.199Z,60.30
2023-03-19T00:59:46.281Z,59.30
2023-03-19T01:02:13.251Z,59.30
2023-03-19T01:04:40.342Z,59.40
2023-03-19T01:07:07.542Z,59.30
2023-03-19T01:09:35.926Z,59.30
2023-03-19T01:12:04.795Z,59.70
2023-03-19T01:14:32.548Z,59.70
2023-03-19T01:17:00.086Z,59.70
2023-03-19T01:19:27.341Z,59.80
2023-03-19T01:21:54.363Z,59.80
2023-03-19T01:24:22.946Z,59.80
2023-03-19T01:26:53.574Z,60.00
2023-03-19T01:29:31.994Z,60.00
2023-03-19T01:32:06.099Z,60.10
2023-03-19T01:34:59.252Z,60.10
2023-03-19T01:37:26.463Z,60.10
2023-03-19T01:39:53.680Z,60.00
2023-03-19T01:42:20.708Z,60.00
2023-03-19T01:45:40.850Z,60.00
2023-03-19T01:48:41.611Z,60.00
2023-03-19T01:51:17.275Z,60.10
2023-03-19T01:54:01.235Z,60.00
2023-03-19T01:56:38.881Z,60.00
2023-03-19T01:59:38.824Z,60.00
2023-03-19T02:02:32.072Z,60.00
2023-03-19T02:05:11.312Z,59.90
2023-03-19T02:07:41.404Z,60.00
2023-03-19T02:10:15.098Z,60.00
2023-03-19T02:12:42.415Z,60.20
2023-03-19T02:15:09.985Z,60.10
2023-03-19T02:17:37.349Z,61.00
2023-03-19T02:20:14.978Z,60.10
2023-03-19T02:22:55.387Z,60.20
2023-03-19T02:25:35.291Z,60.30
2023-03-19T02:28:03.446Z,60.30
2023-03-19T02:30:34.150Z,60.20
2023-03-19T02:33:06.819Z,60.40
2023-03-19T02:35:35.717Z,60.30
2023-03-19T02:38:05.003Z,60.40
2023-03-19T02:40:38.463Z,60.40
2023-03-19T02:43:05.447Z,60.60
2023-03-19T02:45:32.686Z,60.60
2023-03-19T02:48:00.364Z,60.60
2023-03-19T02:50:27.523Z,60.60
2023-03-19T02:52:54.657Z,60.60
2023-03-19T02:55:22.155Z,60.50
2023-03-19T02:57:49.383Z,60.50
2023-03-19T03:00:18.703Z,60.60
2023-03-19T03:02:45.972Z,60.70
2023-03-19T03:05:14.360Z,60.80
2023-03-19T03:07:43.786Z,60.90
2023-03-19T03:10:11.841Z,60.90
2023-03-19T03:12:38.897Z,61.00
2023-03-19T03:15:08.464Z,61.00
2023-03-19T03:17:40.694Z,61.00
2023-03-19T03:20:11.580Z,61.10
2023-03-19T03:22:39.930Z,60.90
2023-03-19T03:25:07.696Z,60.90
2023-03-19T03:27:34.834Z,60.90
2023-03-19T03:30:01.749Z,60.80
2023-03-19T03:32:28.683Z,60.90
2023-03-19T03:34:55.750Z,60.80
2023-03-19T03:37:22.831Z,60.90
2023-03-19T03:39:49.832Z,60.80
2023-03-19T03:42:19.315Z,60.80
2023-03-19T03:44:47.054Z,61.10
2023-03-19T03:47:14.342Z,61.00
2023-03-19T03:49:41.821Z,61.20
2023-03-19T03:52:09.244Z,61.10
2023-03-19T03:54:36.327Z,61.20
2023-03-19T03:57:03.838Z,61.30
2023-03-19T03:59:31.682Z,61.30
2023-03-19T04:01:58.886Z,61.40
2023-03-19T04:04:26.462Z,61.40
2023-03-19T04:06:53.504Z,61.40
2023-03-19T04:09:31.279Z,61.40
2023-03-19T04:11:59.164Z,61.40
2023-03-19T04:14:27.072Z,61.50
2023-03-19T04:16:54.381Z,61.50
2023-03-19T04:19:21.404Z,61.50
2023-03-19T04:21:48.381Z,61.60
2023-03-19T04:24:16.436Z,61.80
2023-03-19T04:26:43.945Z,61.90
2023-03-19T04:29:10.960Z,62.10
2023-03-19T04:31:38.321Z,62.10
2023-03-19T04:34:05.888Z,62.00
2023-03-19T04:36:33.120Z,62.30
2023-03-19T04:39:00.300Z,62.30
2023-03-19T04:41:27.586Z,62.40
2023-03-19T04:44:13.581Z,62.40
2023-03-19T04:46:42.260Z,62.60
2023-03-19T04:49:09.286Z,62.60
2023-03-19T04:51:36.464Z,62.50
2023-03-19T04:54:03.811Z,62.70
2023-03-19T04:56:31.644Z,63.00
2023-03-19T04:58:58.924Z,63.10
2023-03-19T05:01:26.148Z,63.30
2023-03-19T05:04:00.242Z,63.60
2023-03-19T05:06:28.139Z,63.60
2023-03-19T05:08:55.697Z,63.60
2023-03-19T05:11:23.927Z,63.70
2023-03-19T05:14:05.464Z,63.70
2023-03-19T05:16:45.384Z,63.60
2023-03-19T05:19:12.456Z,63.70
2023-03-19T05:21:40.803Z,63.80
2023-03-19T05:24:08.064Z,63.90
2023-03-19T05:26:38.022Z,64.00
2023-03-19T05:29:20.160Z,63.90
2023-03-19T05:32:10.544Z,64.00
2023-03-19T05:34:38.990Z,64.30
2023-03-19T05:37:06.554Z,64.40
2023-03-19T05:39:33.996Z,64.40
2023-03-19T05:42:05.161Z,64.60
2023-03-19T05:44:33.096Z,64.70
2023-03-19T05:47:05.876Z,64.70
2023-03-19T05:49:36.889Z,64.70
2023-03-19T05:52:04.888Z,64.70
2023-03-19T05:54:32.421Z,64.80
2023-03-19T05:57:28.312Z,64.90
2023-03-19T06:00:17.919Z,64.90
2023-03-19T06:02:46.924Z,65.00
2023-03-19T06:05:34.628Z,65.10
2023-03-19T06:08:17.081Z,65.10
2023-03-19T06:11:02.019Z,65.20
2023-03-19T06:13:29.025Z,65.20
2023-03-19T06:16:00.055Z,65.20
2023-03-19T06:18:40.261Z,65.20
2023-03-19T06:21:10.795Z,65.10
2023-03-19T06:23:38.050Z,65.20
2023-03-19T06:26:07.057Z,65.10
2023-03-19T06:28:49.191Z,65.20
2023-03-19T06:31:17.435Z,65.00
2023-03-19T06:34:05.039Z,64.90
2023-03-19T06:36:41.586Z,65.00
2023-03-19T06:39:11.284Z,64.70
2023-03-19T06:41:38.319Z,64.70
2023-03-19T06:44:13.232Z,64.50
2023-03-19T06:46:40.645Z,64.60
2023-03-19T06:49:07.856Z,64.40
2023-03-19T06:51:34.775Z,64.40
2023-03-19T06:54:01.929Z,64.40
2023-03-19T06:56:29.438Z,64.40
2023-03-19T06:58:56.604Z,64.20
2023-03-19T07:01:23.910Z,64.20
2023-03-19T07:03:51.079Z,64.10
2023-03-19T07:06:18.115Z,64.00
2023-03-19T07:08:46.684Z,63.90
2023-03-19T07:11:14.356Z,63.90
2023-03-19T07:13:41.511Z,63.90
2023-03-19T07:16:08.883Z,64.00
2023-03-19T07:18:35.905Z,63.90
2023-03-19T07:21:02.971Z,64.80
2023-03-19T07:23:30.004Z,63.90
2023-03-19T07:25:56.926Z,63.90
2023-03-19T07:28:24.173Z,63.90
2023-03-19T07:30:54.928Z,63.80
2023-03-19T07:33:22.135Z,63.80
2023-03-19T07:35:49.502Z,63.70
2023-03-19T07:38:16.598Z,63.80
2023-03-19T07:40:54.878Z,63.60
2023-03-19T07:43:28.128Z,63.70
2023-03-19T07:45:55.030Z,63.50
2023-03-19T07:48:22.042Z,63.40
2023-03-19T07:50:51.837Z,63.50
2023-03-19T07:53:18.929Z,63.50
2023-03-19T07:55:46.036Z,63.40
2023-03-19T07:58:13.320Z,63.40
2023-03-19T08:00:40.414Z,63.30
2023-03-19T08:03:07.474Z,63.40
2023-03-19T08:05:34.555Z,61.90
2023-03-19T08:08:01.705Z,61.90
2023-03-19T08:10:28.762Z,61.90
2023-03-19T08:12:55.927Z,61.50
2023-03-19T08:15:22.788Z,61.70
2023-03-19T08:17:49.936Z,61.70
2023-03-19T08:20:17.391Z,61.30
2023-03-19T08:22:44.416Z,60.90
2023-03-19T08:25:11.799Z,60.60
2023-03-19T08:27:38.974Z,60.50
2023-03-19T08:30:08.367Z,60.30
2023-03-19T08:32:36.282Z,60.30
2023-03-19T08:35:04.748Z,60.40
2023-03-19T08:37:31.736Z,60.30
2023-03-19T08:39:58.889Z,60.30
2023-03-19T08:42:25.964Z,60.10
2023-03-19T08:44:52.868Z,59.90
2023-03-19T08:47:20.543Z,59.70
2023-03-19T08:49:47.405Z,59.50
2023-03-19T08:52:14.553Z,59.60
2023-03-19T08:54:41.485Z,59.70
2023-03-19T08:57:08.467Z,59.50
2023-03-19T08:59:35.608Z,59.30
2023-03-19T09:02:02.610Z,59.00
2023-03-19T09:04:29.683Z,58.80
2023-03-19T09:06:57.061Z,58.70
2023-03-19T09:09:24.825Z,59.50
2023-03-19T09:11:51.809Z,58.50
2023-03-19T09:14:20.520Z,58.10
2023-03-19T09:16:47.582Z,58.30
2023-03-19T09:19:15.303Z,57.70
2023-03-19T09:21:42.573Z,57.50
2023-03-19T09:24:09.717Z,57.60
2023-03-19T09:26:36.733Z,57.70
2023-03-19T09:29:04.937Z,57.80
2023-03-19T09:31:32.041Z,57.80
2023-03-19T09:33:59.034Z,57.80
2023-03-19T09:36:26.561Z,58.00
2023-03-19T09:38:53.547Z,57.30
2023-03-19T09:41:52.087Z,57.60
2023-03-19T09:44:33.857Z,57.60
2023-03-19T09:47:29.144Z,57.50
2023-03-19T09:50:13.309Z,57.70
2023-03-19T09:52:49.452Z,57.80
2023-03-19T09:55:37.263Z,58.10
2023-03-19T09:58:17.849Z,57.50
2023-03-19T10:00:52.277Z,57.30
2023-03-19T10:03:22.061Z,56.80
2023-03-19T10:06:08.527Z,56.50
2023-03-19T10:08:39.600Z,56.40
2023-03-19T10:11:31.142Z,55.90
2023-03-19T10:14:32.552Z,55.90
2023-03-19T10:17:04.284Z,56.10
2023-03-19T10:19:52.012Z,55.80
2023-03-19T10:22:27.322Z,55.80
2023-03-19T10:24:56.405Z,55.40
2023-03-19T10:27:26.739Z,55.30
2023-03-19T10:29:54.297Z,56.30
2023-03-19T10:32:43.474Z,54.40
2023-03-19T10:35:22.259Z,54.30
2023-03-19T10:37:50.890Z,54.60
2023-03-19T10:40:30.373Z,54.40
2023-03-19T10:43:17.188Z,54.50
2023-03-19T10:45:44.209Z,54.20
2023-03-19T10:48:17.985Z,54.20
2023-03-19T10:51:05.445Z,54.10
2023-03-19T10:53:38.614Z,54.00
2023-03-19T10:56:23.047Z,53.70
2023-03-19T10:59:07.286Z,54.10
2023-03-19T11:01:40.611Z,53.90
2023-03-19T11:04:22.230Z,53.70
2023-03-19T11:07:02.190Z,53.80
2023-03-19T11:09:39.125Z,53.70
2023-03-19T11:12:08.842Z,53.60
2023-03-19T11:14:44.522Z,53.50
2023-03-19T11:17:40.318Z,53.40
2023-03-19T11:20:37.162Z,52.90
2023-03-19T11:23:16.504Z,52.70
2023-03-19T11:25:55.189Z,52.90
2023-03-19T11:28:26.757Z,53.00
2023-03-19T11:31:27.007Z,52.80
2023-03-19T11:34:34.397Z,52.70
2023-03-19T11:37:16.168Z,53.10
2023-03-19T11:40:07.193Z,52.30
2023-03-19T11:43:09.680Z,52.20
2023-03-19T11:45:54.548Z,52.30
2023-03-19T11:48:30.353Z,51.90
2023-03-19T11:51:06.597Z,51.70
2023-03-19T11:54:04.306Z,51.80
2023-03-19T11:56:47.564Z,52.00
2023-03-19T11:59:26.705Z,51.50
2023-03-19T12:02:09.342Z,51.60
2023-03-19T12:04:54.073Z,51.10
2023-03-19T12:07:45.003Z,50.70
2023-03-19T12:10:33.608Z,50.80
2023-03-19T12:13:25.608Z,51.10
2023-03-19T12:16:39.002Z,50.80
2023-03-19T12:19:50.619Z,51.80
2023-03-19T12:22:41.845Z,51.80
2023-03-19T12:25:46.382Z,51.00
2023-03-19T12:28:29.656Z,51.30
2023-03-19T12:31:23.163Z,49.90
2023-03-19T12:34:29.776Z,47.60
2023-03-19T12:37:35.509Z,48.50
2023-03-19T12:40:42.679Z,46.50
2023-03-19T12:43:42.151Z,46.60
2023-03-19T12:46:16.588Z,44.40
2023-03-19T12:49:08.151Z,45.20
2023-03-19T12:51:40.533Z,44.20
2023-03-19T12:54:27.248Z,42.90
2023-03-19T12:57:19.893Z,42.80
2023-03-19T13:00:17.929Z,41.80
2023-03-19T13:02:57.945Z,41.70
2023-03-19T13:05:34.577Z,39.20
2023-03-19T13:08:37.554Z,39.40
2023-03-19T13:11:17.411Z,39.00
2023-03-19T13:14:20.669Z,38.20
2023-03-19T13:17:07.643Z,39.10
2023-03-19T13:19:47.853Z,38.20
2023-03-19T13:22:27.764Z,38.00
2023-03-19T13:24:56.268Z,37.10
2023-03-19T13:27:33.225Z,36.20
2023-03-19T13:30:12.942Z,35.40
2023-03-19T13:33:05.423Z,36.20
2023-03-19T13:35:37.062Z,35.50
2023-03-19T13:38:42.498Z,34.50
2023-03-19T13:41:37.606Z,36.20
2023-03-19T13:44:22.825Z,35.60
2023-03-19T13:46:51.399Z,35.50
2023-03-19T13:49:35.176Z,34.40
2023-03-19T13:52:11.692Z,35.10
2023-03-19T13:54:41.390Z,34.40
2023-03-19T13:57:18.295Z,34.60
2023-03-19T13:59:49.848Z,34.90
2023-03-19T14:02:22.734Z,34.90
2023-03-19T14:04:59.208Z,34.90
2023-03-19T14:07:40.503Z,35.00
2023-03-19T14:10:27.253Z,34.90
2023-03-19T14:13:09.389Z,34.10
2023-03-19T14:15:41.720Z,34.60
2023-03-19T14:18:18.730Z,33.50
2023-03-19T14:20:58.488Z,33.10
2023-03-19T14:23:39.425Z,34.40
2023-03-19T14:26:24.433Z,33.10
2023-03-19T14:29:07.319Z,35.00
2023-03-19T14:31:50.244Z,33.80
2023-03-19T14:34:24.862Z,34.20
2023-03-19T14:37:25.624Z,34.50
2023-03-19T14:40:08.213Z,34.80
2023-03-19T14:42:47.570Z,35.10
2023-03-19T14:45:36.074Z,35.10
2023-03-19T14:48:15.160Z,35.60
2023-03-19T14:51:10.387Z,35.50
2023-03-19T14:53:56.406Z,35.80
2023-03-19T14:56:41.745Z,36.00
2023-03-19T14:59:13.699Z,36.30
2023-03-19T15:01:44.990Z,36.20
2023-03-19T15:04:15.516Z,36.50
2023-03-19T15:06:59.285Z,36.70
2023-03-19T15:09:32.493Z,36.80
2023-03-19T15:12:31.250Z,36.80
2023-03-19T15:15:18.101Z,37.10
2023-03-19T15:17:51.642Z,37.10
2023-03-19T15:20:26.527Z,37.20
2023-03-19T15:23:01.091Z,37.50
2023-03-19T15:25:28.528Z,37.70
2023-03-19T15:28:09.848Z,37.50
2023-03-19T15:30:52.347Z,37.70
2023-03-19T15:33:39.517Z,37.60
2023-03-19T15:36:31.721Z,37.90
2023-03-19T15:39:06.746Z,38.10
2023-03-19T15:41:41.653Z,38.20
2023-03-19T15:44:17.094Z,38.40
2023-03-19T15:46:45.761Z,38.40
2023-03-19T15:49:45.649Z,39.10
2023-03-19T15:52:16.982Z,38.70
2023-03-19T15:54:44.486Z,39.00
2023-03-19T15:57:15.298Z,39.20
2023-03-19T15:59:42.615Z,39.50
2023-03-19T16:02:22.148Z,40.00
2023-03-19T16:05:18.715Z,40.20
2023-03-19T16:07:44.419Z,39.90
2023-03-19T16:10:42.672Z,39.70
2023-03-19T16:13:32.185Z,39.80
2023-03-19T16:16:28.902Z,40.30
2023-03-19T16:18:57.993Z,41.20
2023-03-19T16:21:27.615Z,41.60
2023-03-19T16:24:00.528Z,42.20
2023-03-19T16:26:40.897Z,42.40
2023-03-19T16:29:27.899Z,42.80
2023-03-19T16:32:06.489Z,43.30
2023-03-19T16:34:42.437Z,44.50
2023-03-19T16:38:28.162Z,44.40
2023-03-19T16:41:33.782Z,44.10
2023-03-19T16:44:18.554Z,44.60
2023-03-19T16:46:45.971Z,46.20
2023-03-19T16:49:12.919Z,47.00
2023-03-19T16:51:40.176Z,47.30
2023-03-19T16:54:07.465Z,47.20
2023-03-19T16:56:34.524Z,47.40
2023-03-19T16:59:03.576Z,47.30
2023-03-19T17:01:30.886Z,48.40
2023-03-19T17:03:59.005Z,48.30
2023-03-19T17:06:29.443Z,48.40
2023-03-19T17:08:56.765Z,48.30
2023-03-19T17:11:35.865Z,48.70
2023-03-19T17:14:05.501Z,49.40
2023-03-19T17:16:33.410Z,49.80
2023-03-19T17:19:00.539Z,49.50
2023-03-19T17:21:33.486Z,49.60
2023-03-19T17:24:21.784Z,51.60
2023-03-19T17:26:48.904Z,51.30
2023-03-19T17:29:15.799Z,50.80
2023-03-19T17:31:43.303Z,51.80
2023-03-19T17:34:21.063Z,53.30
2023-03-19T17:37:00.466Z,53.20
2023-03-19T17:39:32.090Z,52.40
2023-03-19T17:41:59.721Z,54.20
2023-03-19T17:44:27.837Z,54.20
2023-03-19T17:46:56.004Z,53.80
2023-03-19T17:49:29.912Z,53.60
2023-03-19T17:51:57.327Z,54.70
2023-03-19T17:54:26.941Z,56.10
2023-03-19T17:56:55.484Z,55.20
2023-03-19T17:59:23.254Z,55.00
2023-03-19T18:01:51.984Z,56.60
2023-03-19T18:04:21.344Z,55.60
2023-03-19T18:06:55.340Z,55.00
2023-03-19T18:09:25.819Z,54.80
2023-03-19T18:11:53.839Z,54.50
2023-03-19T18:14:21.029Z,55.00
2023-03-19T18:16:48.434Z,55.90
2023-03-19T18:19:33.581Z,55.60
2023-03-19T18:22:00.888Z,55.30
2023-03-19T18:24:27.881Z,55.50
2023-03-19T18:26:54.915Z,55.50
2023-03-19T18:29:21.869Z,54.90
2023-03-19T18:31:50.380Z,55.00
2023-03-19T18:34:17.942Z,54.90
2023-03-19T18:36:45.268Z,54.70
2023-03-19T18:39:16.259Z,54.90
2023-03-19T18:41:43.689Z,55.10
2023-03-19T18:44:12.041Z,55.00
2023-03-19T18:46:40.538Z,54.90
2023-03-19T18:49:22.567Z,55.10
2023-03-19T18:52:01.722Z,55.30
2023-03-19T18:54:31.052Z,56.50
2023-03-19T18:57:02.198Z,55.40
2023-03-19T18:59:32.752Z,55.80
2023-03-19T19:02:25.045Z,56.00
2023-03-19T19:04:51.961Z,55.80
2023-03-19T19:07:18.874Z,56.10
2023-03-19T19:09:46.178Z,56.30
2023-03-19T19:12:18.649Z,56.50
2023-03-19T19:14:46.568Z,56.40
2023-03-19T19:17:24.500Z,55.90
2023-03-19T19:19:51.457Z,56.00
2023-03-19T19:22:19.453Z,56.00
2023-03-19T19:24:46.711Z,56.40
2023-03-19T19:27:25.997Z,56.40
2023-03-19T19:29:53.210Z,56.40
2023-03-19T19:32:26.255Z,56.20
2023-03-19T19:34:53.864Z,57.00
2023-03-19T19:37:23.338Z,57.00
2023-03-19T19:39:51.160Z,57.00
2023-03-19T19:42:21.736Z,56.80
2023-03-19T19:44:55.686Z,56.80
2023-03-19T19:47:22.786Z,56.80
2023-03-19T19:49:49.713Z,57.50
2023-03-19T19:52:19.168Z,57.70
2023-03-19T19:54:46.984Z,58.00
2023-03-19T19:57:24.427Z,58.10
2023-03-19T19:59:52.660Z,57.90
2023-03-19T20:02:26.038Z,57.90
2023-03-19T20:04:53.000Z,58.20
2023-03-19T20:07:20.505Z,58.00
2023-03-19T20:09:48.267Z,57.90
2023-03-19T20:12:26.251Z,57.80
2023-03-19T20:14:53.402Z,58.10
2023-03-19T20:17:21.199Z,58.30
2023-03-19T20:19:48.327Z,58.70
2023-03-19T20:22:15.467Z,58.90
2023-03-19T20:24:42.736Z,59.30
2023-03-19T20:27:20.871Z,60.00
2023-03-19T20:29:50.138Z,60.30
2023-03-19T20:32:32.955Z,61.10
2023-03-19T20:35:03.077Z,61.00
2023-03-19T20:37:30.773Z,61.80
2023-03-19T20:39:58.611Z,61.50
2023-03-19T20:42:28.405Z,61.70
2023-03-19T20:44:58.340Z,62.10
2023-03-19T20:47:25.928Z,62.00
2023-03-19T20:49:53.417Z,62.30
2023-03-19T20:52:20.781Z,62.50
2023-03-19T20:54:48.246Z,62.70
2023-03-19T20:57:18.316Z,62.80
2023-03-19T20:59:46.838Z,62.60
2023-03-19T21:02:19.950Z,62.70
2023-03-19T21:04:47.587Z,63.10
2023-03-19T21:07:33.423Z,64.10
2023-03-19T21:10:20.742Z,63.70
2023-03-19T21:12:47.740Z,64.80
2023-03-19T21:15:16.153Z,64.60
2023-03-19T21:17:44.194Z,64.90
2023-03-19T21:20:24.616Z,65.20
2023-03-19T21:22:56.816Z,64.90
2023-03-19T21:25:28.303Z,65.00
2023-03-19T21:28:00.953Z,65.10
2023-03-19T21:30:28.232Z,65.70
2023-03-19T21:32:56.889Z,65.50
2023-03-19T21:35:26.248Z,66.00
2023-03-19T21:37:53.727Z,66.80
2023-03-19T21:40:28.308Z,67.20
2023-03-19T21:43:00.462Z,67.30
2023-03-19T21:45:36.504Z,67.50
2023-03-19T21:48:25.162Z,67.80
2023-03-19T21:50:52.890Z,68.00
2023-03-19T21:53:21.174Z,68.70
2023-03-19T21:55:50.542Z,69.30
2023-03-19T21:58:42.306Z,68.90
2023-03-19T22:01:19.557Z,69.30
2023-03-19T22:03:46.681Z,70.00
2023-03-19T22:06:14.164Z,69.40
2023-03-19T22:08:44.415Z,69.60
2023-03-19T22:11:23.281Z,70.00
2023-03-19T22:13:50.290Z,70.10
2023-03-19T22:16:23.910Z,70.30
2023-03-19T22:18:52.686Z,70.30
2023-03-19T22:21:22.490Z,70.50
2023-03-19T22:23:51.454Z,70.30
2023-03-19T22:26:36.203Z,70.60
2023-03-19T22:29:25.241Z,70.60
2023-03-19T22:31:54.025Z,70.40
2023-03-19T22:34:25.980Z,70.90
2023-03-19T22:36:53.477Z,71.10
2023-03-19T22:39:20.392Z,70.90
2023-03-19T22:41:49.004Z,71.00
2023-03-19T22:44:28.720Z,71.00
2023-03-19T22:46:58.928Z,70.90
2023-03-19T22:49:26.485Z,71.10
2023-03-19T22:51:53.436Z,71.30
2023-03-19T22:54:20.392Z,71.30
2023-03-19T22:56:47.397Z,71.40
2023-03-19T22:59:14.490Z,71.30
2023-03-19T23:01:45.139Z,71.30
2023-03-19T23:04:24.739Z,71.50
2023-03-19T23:06:53.636Z,71.30
2023-03-19T23:09:27.000Z,71.40
2023-03-19T23:11:54.507Z,71.40
2023-03-19T23:14:29.753Z,71.50
2023-03-19T23:17:02.040Z,71.40
2023-03-19T23:19:35.518Z,71.40
2023-03-19T23:22:05.634Z,71.40
2023-03-19T23:24:33.505Z,71.60
2023-03-19T23:27:02.333Z,71.70
2023-03-19T23:29:36.585Z,71.80
2023-03-19T23:32:04.869Z,71.80
2023-03-19T23:34:35.358Z,71.80
2023-03-19T23:37:07.496Z,71.90
2023-03-19T23:39:34.670Z,71.80
2023-03-19T23:42:01.805Z,71.90
2023-03-19T23:44:29.626Z,71.90
2023-03-19T23:47:00.816Z,71.70
2023-03-19T23:49:32.261Z,71.80
2023-03-19T23:51:59.782Z,71.90
2023-03-19T23:54:34.680Z,71.90
2023-03-19T23:57:06.595Z,71.80
2023-03-19T23:59:40.638Z,71.60
